Terminal Aerodrome Forecast
Issued by NWS Cleveland, OH

Home | Current Version | Previous Version | Text Only | Print | Product List | Glossary Off
Versions: 1 2 3 4 5 6 7 8 9 10 11 12 13 14 15 16 17

000
FTUS41 KCLE 311131
TAFCAK
TAF
KCAK 311131Z 3112/0112 23005KT P6SM SCT150
     FM311600 25005KT P6SM SCT050
     FM311900 27008KT P6SM BKN050
     FM010000 21004KT P6SM FEW100=

USA.gov is the U.S. government's official web portal to all federal, state and local government web resources and services.